CFG37ML EDDL-EDDH
Flight info
| Callsign | CFG37ML |
|---|---|
| Flight time | 0h 34m |
| Altitude | 33000 |
| Route | MEVEL4T MEVEL Y850 BASUM/N0443F320 Y850 PIXUR/N0443F310 Y850 MUBZI M105 RIBSO RIBSO3P |
| Aircraft | A320/M-SDE3FGHIRWY/LB1 |
Departure
| Time | 2026-05-04 21:04 |
|---|---|
| Airport | Düsseldorf Airport (EDDL) |
Arrival
| Time | 2026-05-04 21:38 |
|---|---|
| Airport | Hamburg Helmut Schmidt Airport (EDDH) |
| Time | Latitude | Longitude | Altitude | Speed | Heading |
|---|---|---|---|---|---|
| 2026-05-04 20:49 | 51.27913 | 6.75932 | 137 ft | 0 kts | 90° |
| 2026-05-04 20:58 | 51.27912 | 6.75985 | 137 ft | 9 kts | 91° |
| 2026-05-04 20:59 | 51.27965 | 6.76045 | 137 ft | 14 kts | 358° |
| 2026-05-04 20:59 | 51.28082 | 6.76045 | 137 ft | 18 kts | 345° |
| 2026-05-04 20:59 | 51.28143 | 6.76050 | 137 ft | 11 kts | 50° |
| 2026-05-04 20:59 | 51.28202 | 6.76174 | 137 ft | 17 kts | 52° |
| 2026-05-04 21:00 | 51.28279 | 6.76341 | 137 ft | 19 kts | 52° |
| 2026-05-04 21:00 | 51.28367 | 6.76525 | 137 ft | 23 kts | 52° |
| 2026-05-04 21:00 | 51.28472 | 6.76745 | 137 ft | 27 kts | 53° |
| 2026-05-04 21:00 | 51.28594 | 6.76997 | 137 ft | 30 kts | 53° |
| 2026-05-04 21:01 | 51.28729 | 6.77280 | 137 ft | 34 kts | 53° |
| 2026-05-04 21:01 | 51.28870 | 6.77578 | 137 ft | 33 kts | 53° |
| 2026-05-04 21:01 | 51.29006 | 6.77866 | 137 ft | 32 kts | 52° |
| 2026-05-04 21:01 | 51.29139 | 6.78141 | 137 ft | 31 kts | 53° |
| 2026-05-04 21:02 | 51.29267 | 6.78411 | 137 ft | 30 kts | 53° |
| 2026-05-04 21:02 | 51.29410 | 6.78570 | 138 ft | 14 kts | 350° |
| 2026-05-04 21:02 | 51.29495 | 6.78560 | 141 ft | 9 kts | 351° |
| 2026-05-04 21:02 | 51.29538 | 6.78512 | 143 ft | 11 kts | 285° |
| 2026-05-04 21:03 | 51.29500 | 6.78424 | 141 ft | 0 kts | 234° |
| 2026-05-04 21:03 | 51.29494 | 6.78412 | 141 ft | 16 kts | 234° |
| 2026-05-04 21:03 | 51.29254 | 6.77912 | 137 ft | 93 kts | 233° |
| 2026-05-04 21:03 | 51.28736 | 6.76830 | 139 ft | 149 kts | 232° |
| 2026-05-04 21:04 | 51.28086 | 6.75477 | 637 ft | 155 kts | 231° |
| 2026-05-04 21:04 | 51.27430 | 6.74093 | 1298 ft | 157 kts | 232° |
| 2026-05-04 21:04 | 51.26825 | 6.72541 | 1692 ft | 178 kts | 252° |
| 2026-05-04 21:04 | 51.26948 | 6.70514 | 2090 ft | 198 kts | 300° |
| 2026-05-04 21:05 | 51.27989 | 6.69083 | 2748 ft | 203 kts | 335° |
| 2026-05-04 21:05 | 51.29366 | 6.68554 | 3507 ft | 208 kts | 358° |
| 2026-05-04 21:05 | 51.30888 | 6.68690 | 3969 ft | 231 kts | 2° |
| 2026-05-04 21:05 | 51.32575 | 6.68885 | 4406 ft | 255 kts | 2° |
| 2026-05-04 21:06 | 51.34417 | 6.69092 | 5020 ft | 272 kts | 2° |
| 2026-05-04 21:06 | 51.36327 | 6.69301 | 5879 ft | 278 kts | 2° |
| 2026-05-04 21:06 | 51.38277 | 6.69510 | 6754 ft | 283 kts | 2° |
| 2026-05-04 21:06 | 51.40260 | 6.69648 | 7631 ft | 287 kts | 360° |
| 2026-05-04 21:07 | 51.42273 | 6.69678 | 8491 ft | 291 kts | 359° |
| 2026-05-04 21:07 | 51.44315 | 6.69665 | 9333 ft | 295 kts | 358° |
| 2026-05-04 21:07 | 51.46388 | 6.69640 | 10149 ft | 300 kts | 358° |
| 2026-05-04 21:07 | 51.48549 | 6.69615 | 10510 ft | 323 kts | 358° |
| 2026-05-04 21:08 | 51.50875 | 6.69597 | 10773 ft | 345 kts | 359° |
| 2026-05-04 21:08 | 51.53320 | 6.69591 | 11329 ft | 356 kts | 359° |
| 2026-05-04 21:08 | 51.55813 | 6.69598 | 12057 ft | 361 kts | 359° |
| 2026-05-04 21:08 | 51.58327 | 6.69902 | 12774 ft | 365 kts | 10° |
| 2026-05-04 21:09 | 51.60773 | 6.71091 | 13469 ft | 370 kts | 23° |
| 2026-05-04 21:09 | 51.63000 | 6.73207 | 14151 ft | 375 kts | 35° |
| 2026-05-04 21:09 | 51.65150 | 6.75609 | 14819 ft | 378 kts | 35° |
| 2026-05-04 21:09 | 51.67323 | 6.78041 | 15463 ft | 383 kts | 34° |
| 2026-05-04 21:10 | 51.69524 | 6.80504 | 16080 ft | 387 kts | 35° |
| 2026-05-04 21:10 | 51.71738 | 6.82995 | 16648 ft | 390 kts | 35° |
| 2026-05-04 21:10 | 51.73976 | 6.85525 | 17192 ft | 395 kts | 35° |
| 2026-05-04 21:10 | 51.76241 | 6.88082 | 17781 ft | 400 kts | 35° |
| 2026-05-04 21:11 | 51.78529 | 6.90672 | 18361 ft | 404 kts | 35° |
| 2026-05-04 21:11 | 51.80836 | 6.93297 | 18913 ft | 408 kts | 35° |
| 2026-05-04 21:11 | 51.83117 | 6.96062 | 19446 ft | 412 kts | 43° |
| 2026-05-04 21:11 | 51.85033 | 6.99531 | 19994 ft | 415 kts | 51° |
| 2026-05-04 21:12 | 51.86875 | 7.03158 | 20547 ft | 421 kts | 51° |
| 2026-05-04 21:12 | 51.88731 | 7.06832 | 21084 ft | 424 kts | 52° |
| 2026-05-04 21:12 | 51.90593 | 7.10552 | 21580 ft | 427 kts | 52° |
| 2026-05-04 21:12 | 51.92468 | 7.14314 | 22058 ft | 431 kts | 52° |
| 2026-05-04 21:13 | 51.94361 | 7.18113 | 22521 ft | 435 kts | 52° |
| 2026-05-04 21:13 | 51.96267 | 7.21942 | 22977 ft | 438 kts | 52° |
| 2026-05-04 21:13 | 51.98186 | 7.25799 | 23410 ft | 442 kts | 52° |
| 2026-05-04 21:13 | 52.00125 | 7.29694 | 23824 ft | 445 kts | 52° |
| 2026-05-04 21:14 | 52.02078 | 7.33615 | 24204 ft | 449 kts | 52° |
| 2026-05-04 21:14 | 52.04048 | 7.37575 | 24564 ft | 453 kts | 52° |
| 2026-05-04 21:14 | 52.06006 | 7.41515 | 24935 ft | 456 kts | 52° |
| 2026-05-04 21:14 | 52.08032 | 7.45590 | 25308 ft | 459 kts | 52° |
| 2026-05-04 21:15 | 52.10042 | 7.49644 | 25666 ft | 462 kts | 52° |
| 2026-05-04 21:15 | 52.12064 | 7.53737 | 26021 ft | 465 kts | 52° |
| 2026-05-04 21:15 | 52.14064 | 7.57795 | 26358 ft | 468 kts | 52° |
| 2026-05-04 21:15 | 52.16104 | 7.61947 | 26696 ft | 470 kts | 52° |
| 2026-05-04 21:16 | 52.18149 | 7.66121 | 27020 ft | 473 kts | 52° |
| 2026-05-04 21:16 | 52.20207 | 7.70325 | 27332 ft | 476 kts | 52° |
| 2026-05-04 21:16 | 52.22278 | 7.74553 | 27633 ft | 478 kts | 52° |
| 2026-05-04 21:16 | 52.24360 | 7.78802 | 27941 ft | 481 kts | 52° |
| 2026-05-04 21:17 | 52.26451 | 7.83078 | 28234 ft | 483 kts | 52° |
| 2026-05-04 21:17 | 52.28540 | 7.87377 | 28486 ft | 486 kts | 52° |
| 2026-05-04 21:17 | 52.30640 | 7.91698 | 28744 ft | 488 kts | 52° |
| 2026-05-04 21:17 | 52.32757 | 7.96045 | 29003 ft | 490 kts | 52° |
| 2026-05-04 21:18 | 52.34883 | 8.00419 | 29260 ft | 492 kts | 52° |
| 2026-05-04 21:18 | 52.37009 | 8.04805 | 29503 ft | 493 kts | 52° |
| 2026-05-04 21:18 | 52.39144 | 8.09222 | 29724 ft | 496 kts | 52° |
| 2026-05-04 21:18 | 52.41283 | 8.13662 | 29954 ft | 498 kts | 52° |
| 2026-05-04 21:19 | 52.43430 | 8.18126 | 30164 ft | 500 kts | 52° |
| 2026-05-04 21:19 | 52.45579 | 8.22598 | 30455 ft | 499 kts | 52° |
| 2026-05-04 21:19 | 52.47723 | 8.27066 | 30730 ft | 497 kts | 52° |
| 2026-05-04 21:19 | 52.49842 | 8.31487 | 30503 ft | 490 kts | 52° |
| 2026-05-04 21:20 | 52.51940 | 8.35872 | 30251 ft | 487 kts | 52° |
| 2026-05-04 21:20 | 52.54025 | 8.40239 | 30007 ft | 486 kts | 52° |
| 2026-05-04 21:20 | 52.56111 | 8.44616 | 29762 ft | 487 kts | 52° |
| 2026-05-04 21:20 | 52.58196 | 8.49002 | 29505 ft | 487 kts | 52° |
| 2026-05-04 21:21 | 52.60280 | 8.53391 | 29255 ft | 487 kts | 52° |
| 2026-05-04 21:21 | 52.62361 | 8.57786 | 28766 ft | 485 kts | 52° |
| 2026-05-04 21:21 | 52.64429 | 8.62169 | 27959 ft | 484 kts | 52° |
| 2026-05-04 21:21 | 52.66488 | 8.66537 | 27202 ft | 482 kts | 52° |
| 2026-05-04 21:22 | 52.68539 | 8.70886 | 26452 ft | 479 kts | 52° |
| 2026-05-04 21:22 | 52.70578 | 8.75213 | 25714 ft | 476 kts | 52° |
| 2026-05-04 21:22 | 52.72604 | 8.79516 | 24985 ft | 473 kts | 52° |
| 2026-05-04 21:22 | 52.74612 | 8.83790 | 24258 ft | 469 kts | 52° |
| 2026-05-04 21:23 | 52.76602 | 8.88028 | 23535 ft | 466 kts | 52° |
| 2026-05-04 21:23 | 52.78573 | 8.92246 | 22844 ft | 462 kts | 52° |
| 2026-05-04 21:23 | 52.80526 | 8.96439 | 22189 ft | 458 kts | 52° |
| 2026-05-04 21:23 | 52.82461 | 9.00599 | 21552 ft | 454 kts | 52° |
| 2026-05-04 21:24 | 52.84375 | 9.04717 | 20959 ft | 449 kts | 52° |
| 2026-05-04 21:24 | 52.86266 | 9.08791 | 20377 ft | 444 kts | 52° |
| 2026-05-04 21:24 | 52.88139 | 9.12826 | 19822 ft | 439 kts | 52° |
| 2026-05-04 21:24 | 52.89987 | 9.16811 | 19282 ft | 434 kts | 52° |
| 2026-05-04 21:25 | 52.91817 | 9.20760 | 18746 ft | 430 kts | 52° |
| 2026-05-04 21:25 | 52.93629 | 9.24679 | 18186 ft | 427 kts | 52° |
| 2026-05-04 21:25 | 52.95421 | 9.28573 | 17632 ft | 423 kts | 52° |
| 2026-05-04 21:25 | 52.97197 | 9.32438 | 17252 ft | 415 kts | 52° |
| 2026-05-04 21:26 | 52.98911 | 9.36170 | 16578 ft | 402 kts | 52° |
| 2026-05-04 21:26 | 53.00593 | 9.39831 | 15660 ft | 395 kts | 52° |
| 2026-05-04 21:26 | 53.02249 | 9.43441 | 14801 ft | 391 kts | 52° |
| 2026-05-04 21:26 | 53.03897 | 9.47040 | 14269 ft | 391 kts | 52° |
| 2026-05-04 21:27 | 53.05536 | 9.50630 | 13707 ft | 389 kts | 52° |
| 2026-05-04 21:27 | 53.07164 | 9.54202 | 13156 ft | 386 kts | 52° |
| 2026-05-04 21:27 | 53.08779 | 9.57754 | 12608 ft | 384 kts | 52° |
| 2026-05-04 21:27 | 53.10381 | 9.61279 | 12054 ft | 380 kts | 52° |
| 2026-05-04 21:28 | 53.11971 | 9.64779 | 11503 ft | 377 kts | 52° |
| 2026-05-04 21:28 | 53.13545 | 9.68246 | 10953 ft | 374 kts | 52° |
| 2026-05-04 21:28 | 53.15109 | 9.71695 | 10413 ft | 371 kts | 52° |
| 2026-05-04 21:28 | 53.16148 | 9.73987 | 10286 ft | 361 kts | 52° |
| 2026-05-04 21:29 | 53.17631 | 9.77264 | 10167 ft | 347 kts | 52° |
| 2026-05-04 21:29 | 53.17816 | 9.77673 | 10149 ft | 345 kts | 52° |
| 2026-05-04 21:29 | 53.19235 | 9.80804 | 10022 ft | 332 kts | 52° |
| 2026-05-04 21:29 | 53.20598 | 9.83829 | 9896 ft | 320 kts | 52° |
| 2026-05-04 21:30 | 53.21912 | 9.86755 | 9717 ft | 311 kts | 52° |
| 2026-05-04 21:30 | 53.23199 | 9.89626 | 9394 ft | 308 kts | 52° |
| 2026-05-04 21:30 | 53.24478 | 9.92478 | 9012 ft | 306 kts | 52° |
| 2026-05-04 21:30 | 53.25747 | 9.95312 | 8636 ft | 304 kts | 52° |
| 2026-05-04 21:31 | 53.28259 | 10.00922 | 7653 ft | 298 kts | 51° |
| 2026-05-04 21:31 | 53.29492 | 10.03674 | 7019 ft | 294 kts | 51° |
| 2026-05-04 21:31 | 53.30738 | 10.06353 | 6381 ft | 289 kts | 44° |
| 2026-05-04 21:32 | 53.32315 | 10.08311 | 5753 ft | 279 kts | 22° |
| 2026-05-04 21:32 | 53.34146 | 10.09138 | 5118 ft | 269 kts | 2° |
| 2026-05-04 21:32 | 53.36003 | 10.09417 | 4446 ft | 267 kts | 2° |
| 2026-05-04 21:32 | 53.37824 | 10.09688 | 4034 ft | 254 kts | 3° |
| 2026-05-04 21:33 | 53.39521 | 10.09943 | 3802 ft | 236 kts | 3° |
| 2026-05-04 21:33 | 53.41102 | 10.10180 | 3576 ft | 221 kts | 4° |
| 2026-05-04 21:33 | 53.42573 | 10.10402 | 3430 ft | 203 kts | 4° |
| 2026-05-04 21:33 | 53.43933 | 10.10607 | 3339 ft | 191 kts | 4° |
| 2026-05-04 21:34 | 53.45217 | 10.10799 | 3292 ft | 179 kts | 3° |
| 2026-05-04 21:34 | 53.46448 | 10.10983 | 3194 ft | 176 kts | 4° |
| 2026-05-04 21:34 | 53.47666 | 10.11164 | 3104 ft | 175 kts | 4° |
| 2026-05-04 21:34 | 53.48882 | 10.11300 | 3023 ft | 174 kts | 355° |
| 2026-05-04 21:35 | 53.50046 | 10.10799 | 2872 ft | 174 kts | 333° |
| 2026-05-04 21:35 | 53.51115 | 10.09875 | 2625 ft | 171 kts | 332° |
| 2026-05-04 21:35 | 53.52164 | 10.08972 | 2389 ft | 166 kts | 332° |
| 2026-05-04 21:35 | 53.53155 | 10.08120 | 2189 ft | 155 kts | 333° |
| 2026-05-04 21:36 | 53.54082 | 10.07323 | 1983 ft | 145 kts | 332° |
| 2026-05-04 21:36 | 53.54958 | 10.06571 | 1790 ft | 139 kts | 332° |
| 2026-05-04 21:36 | 53.55817 | 10.05839 | 1611 ft | 138 kts | 333° |
| 2026-05-04 21:36 | 53.56673 | 10.05146 | 1440 ft | 135 kts | 334° |
| 2026-05-04 21:37 | 53.57504 | 10.04443 | 1272 ft | 134 kts | 332° |
| 2026-05-04 21:37 | 53.58341 | 10.03696 | 1122 ft | 138 kts | 331° |
| 2026-05-04 21:37 | 53.59199 | 10.02922 | 939 ft | 142 kts | 332° |
| 2026-05-04 21:37 | 53.60068 | 10.02165 | 716 ft | 139 kts | 333° |
| 2026-05-04 21:38 | 53.60926 | 10.01420 | 469 ft | 137 kts | 332° |
| 2026-05-04 21:38 | 53.61766 | 10.00703 | 273 ft | 133 kts | 332° |
| 2026-05-04 21:38 | 53.62588 | 9.99993 | 96 ft | 133 kts | 330° |
| 2026-05-04 21:38 | 53.63193 | 9.99478 | 47 ft | 29 kts | 332° |
| 2026-05-04 21:39 | 53.63302 | 9.99377 | 47 ft | 15 kts | 330° |
| 2026-05-04 21:39 | 53.63294 | 9.99324 | 45 ft | 8 kts | 227° |
| 2026-05-04 21:39 | 53.63241 | 9.99231 | 47 ft | 15 kts | 227° |
| 2026-05-04 21:39 | 53.63159 | 9.99070 | 46 ft | 22 kts | 230° |
| 2026-05-04 21:40 | 53.63057 | 9.98868 | 46 ft | 21 kts | 230° |
| 2026-05-04 21:40 | 53.62953 | 9.98649 | 44 ft | 27 kts | 231° |
| 2026-05-04 21:40 | 53.62788 | 9.98479 | 44 ft | 25 kts | 191° |
| 2026-05-04 21:40 | 53.62697 | 9.98523 | 47 ft | 11 kts | 106° |
| 2026-05-04 21:41 | 53.62724 | 9.98624 | 43 ft | 9 kts | 54° |
| 2026-05-04 21:41 | 53.62760 | 9.98702 | 47 ft | 8 kts | 50° |
| 2026-05-04 21:41 | 53.62792 | 9.98767 | 45 ft | 7 kts | 50° |
| 2026-05-04 21:41 | 53.62820 | 9.98823 | 47 ft | 6 kts | 50° |
| 2026-05-04 21:42 | 53.62846 | 9.98873 | 45 ft | 6 kts | 49° |
| 2026-05-04 21:42 | 53.62875 | 9.98930 | 45 ft | 7 kts | 49° |
| 2026-05-04 21:42 | 53.62908 | 9.98995 | 47 ft | 8 kts | 49° |
| 2026-05-04 21:42 | 53.62946 | 9.99071 | 47 ft | 9 kts | 50° |
| 2026-05-04 21:43 | 53.62989 | 9.99158 | 47 ft | 10 kts | 50° |
| 2026-05-04 21:43 | 53.63023 | 9.99273 | 47 ft | 12 kts | 97° |
| 2026-05-04 21:43 | 53.62967 | 9.99350 | 47 ft | 10 kts | 153° |
| 2026-05-04 21:43 | 53.62908 | 9.99400 | 44 ft | 9 kts | 153° |
| 2026-05-04 21:44 | 53.62886 | 9.99420 | 47 ft | 0 kts | 153° |
| 2026-05-04 21:45 | 53.62884 | 9.99421 | 47 ft | 2 kts | 153° |
| 2026-05-04 21:45 | 53.62848 | 9.99452 | 46 ft | 9 kts | 153° |
| 2026-05-04 21:46 | 53.62786 | 9.99505 | 46 ft | 9 kts | 153° |
| 2026-05-04 21:46 | 53.62731 | 9.99552 | 45 ft | 8 kts | 153° |
| 2026-05-04 21:46 | 53.62683 | 9.99594 | 46 ft | 7 kts | 153° |
| 2026-05-04 21:46 | 53.62643 | 9.99636 | 47 ft | 6 kts | 131° |
| 2026-05-04 21:47 | 53.62632 | 9.99702 | 47 ft | 6 kts | 89° |
| 2026-05-04 21:47 | 53.62642 | 9.99777 | 44 ft | 8 kts | 68° |
| 2026-05-04 21:47 | 53.62688 | 9.99855 | 44 ft | 12 kts | 29° |
| 2026-05-04 21:47 | 53.62772 | 9.99932 | 45 ft | 14 kts | 28° |
| 2026-05-04 21:48 | 53.62827 | 9.99995 | 46 ft | 8 kts | 53° |
| 2026-05-04 21:48 | 53.62828 | 10.00066 | 48 ft | 6 kts | 116° |
| 2026-05-04 21:48 | 53.62816 | 10.00120 | 48 ft | 5 kts | 85° |
| 2026-05-04 21:48 | 53.62829 | 10.00168 | 48 ft | 4 kts | 62° |
| 2026-05-04 21:49 | 53.62840 | 10.00204 | 45 ft | 2 kts | 62° |
| 2026-05-04 21:49 | 53.62844 | 10.00215 | 48 ft | 0 kts | 62° |
| 2026-05-04 21:49 | 53.62844 | 10.00216 | 48 ft | 0 kts | 62° |